Portada
METAR-TAF:

METAR-TAF

Aeropuertos :

Aeropuerto de Reikiavik

Reikiavik, Islandia

latitud: 64-08N, longitud: 021-54W, altitud: 54 m

Observación

El informe se hizo hace 27 minutos, a las 05:00 UTC
Viento 3 kt del sur
Temperatura 13°C
Humedad 88%
Presión 1014 hPa
Visibilidad 10 km o más
sin nubes por debajo de 1500 m y sin presencia de cumulonimbus.

METAR: BIRK 300500Z 19003KT CAVOK 13/11 Q1014

Hora: 05:27 (05:27 UTC)

Pronóstico

El informe se hizo hace 4 horas y 25 minutos, a las 01:02 UTC
Pronóstico válido del 30 a las 03 UTC al 31 a las 03 UTC
Viento 2 kt con dirección variable
Visibilidad 10 km o más
Escasas nubes a una altura de 4000 ft

TAF: BIRK 300102Z 3003/3103 VRB02KT 9999 FEW040 TX17/3015Z TN13/3003Z

Observaciones y pronósticos meteorológicos de más de 4000 aeropuertos (mensajes METAR y TAF).

Los puntos amarillos y rojos representan las estaciones disponibles.

Ponga el ratón en el punto deseado para ver el nombre de la estación.

Haga clic para ver las observaciones y los pronósticos meteorológicos.

Para cambiar el mapa : haga clic en los botones verdes con una cruz de color negro para hacer un zoom, en el botón verde con un guión para alejar o en las flechas verdes para mapas adyacentes.


METAR-TAF: